Disclaimer

Please do not use the information listed here in-flight or in-navigation, as they are not provided to us by the airports but are provided by volunteers, so they might be outdated.

Search


Regions


Airport information page

Radio informations:
Tower (TWR) - 118.45 MHz
Ground (GND) - 125.3 MHz
Automatic Terminal Information Service (ATIS) - 123.125 MHz

Airport informations:
Latitude: 50° 31' 02.59" N
Longitude: 001° 37' 14.11" E
Elevation: 36 feet - 11 meters
Operating hours: Remarks
Operating agency: Civil government, landing fees and diplomatic clearance may be required
Timezone: UTC+1(+2DT) - Last Sunday in March to last Sunday in October
Fuel: Jet A1, without icing nhibitor.

100/130 MIL Spec, low lead, aviation gasoline (BLUE)

Runway information:
14/32 - 6070 x 131 feet< - >1850 x 40 meters

Recent METARs:
LFAT 181930Z AUTO 08011KT CAVOK 04/M01 Q1023
LFAT 182000Z AUTO 08014KT CAVOK 04/M02 Q1023
LFAT 182030Z AUTO 09013KT CAVOK 04/M02 Q1023

Airport on the map: